Time;durP1;ratioP1;P1;durP2;ratioP2;P2;SDS_P1;SDS_P2;PMS_P1;PMS_P2;Temp;Humidity;BMP_temperature;BMP_pressure;BME280_temperature;BME280_humidity;BME280_pressure;Samples;Min_cycle;Max_cycle;Signal;HPM_P1;HPM_P2
2023/03/04 00:00:11;;;;;;;;;;;;;;;7.99;88.53;95231.41;5034377;28;1057;-56
2023/03/04 00:02:37;;;;;;;;;;;;;;;7.95;89.12;95229.19;5034226;28;1215;-56
2023/03/04 00:05:03;;;;;;;;;;;;;;;7.96;89.31;95226.34;5034157;28;1022;-56
2023/03/04 00:07:29;;;;;;;;;;;;;;;7.91;89.16;95228.63;5034156;28;1713;-56
2023/03/04 00:09:56;;;;;;;;;;;;;;;7.92;89.42;95224.97;5034276;28;1047;-55
2023/03/04 00:12:21;;;;;;;;;;;;;;;7.91;89.38;95225.97;5034027;28;1993;-55
2023/03/04 00:14:47;;;;;;;;;;;;;;;7.99;89.09;95215.44;5034160;28;1053;-56
2023/03/04 00:17:13;;;;;;;;;;;;;;;7.93;89.47;95208.03;5034049;28;1041;-55
2023/03/04 00:19:39;;;;;;;;;;;;;;;7.86;89.54;95206.91;5033908;28;1069;-55
2023/03/04 00:22:05;;;;;;;;;;;;;;;7.74;89.70;95205.38;5034199;28;1121;-56
2023/03/04 00:24:31;;;;;;;;;;;;;;;7.70;90.25;95203.97;5034026;28;1062;-56
2023/03/04 00:26:58;;;;;;;;;;;;;;;7.67;90.57;95204.28;5033820;28;1101;-56
2023/03/04 00:29:24;;;;;;;;;;;;;;;7.67;91.30;95204.28;5033983;28;1045;-56
2023/03/04 00:31:50;;;;;;;;;;;;;;;7.67;91.90;95204.28;5033566;28;1985;-56
2023/03/04 00:34:16;;;;;;;;;;;;;;;7.75;91.98;95204.41;5033709;28;1053;-55
2023/03/04 00:36:43;;;;;;;;;;;;;;;7.85;91.45;95207.03;5033957;28;1278;-55
2023/03/04 00:39:11;;;;;;;;;;;;;;;7.92;90.84;95201.00;5033797;28;978;-56
2023/03/04 00:41:37;;;;;;;;;;;;;;;7.99;90.26;95199.44;5033815;28;1145;-56
2023/03/04 00:44:03;;;;;;;;;;;;;;;7.98;89.88;95195.09;5033745;28;1054;-56
2023/03/04 00:46:29;;;;;;;;;;;;;;;7.94;89.70;95204.34;5033589;28;1120;-56
2023/03/04 00:48:55;;;;;;;;;;;;;;;7.87;90.35;95199.75;5033485;28;1276;-55
2023/03/04 00:51:21;;;;;;;;;;;;;;;7.85;90.21;95193.72;5033652;28;1903;-56
2023/03/04 00:53:47;;;;;;;;;;;;;;;7.85;91.03;95193.72;5033686;28;1013;-56
2023/03/04 00:56:13;;;;;;;;;;;;;;;7.87;90.38;95195.25;5033449;28;1109;-56
2023/03/04 00:58:39;;;;;;;;;;;;;;;7.85;90.86;95197.22;5033532;28;993;-56
2023/03/04 01:01:06;;;;;;;;;;;;;;;7.83;90.11;95185.88;5033288;28;998;-56
2023/03/04 01:03:32;;;;;;;;;;;;;;;7.72;90.85;95186.91;5033293;28;1137;-56
2023/03/04 01:05:58;;;;;;;;;;;;;;;7.83;90.08;95191.22;5033363;28;1033;-56
2023/03/04 01:08:24;;;;;;;;;;;;;;;7.80;89.94;95195.00;5033518;28;1069;-56
2023/03/04 01:10:51;;;;;;;;;;;;;;;7.74;90.14;95192.06;5033511;28;1078;-56
2023/03/04 01:13:17;;;;;;;;;;;;;;;7.74;90.12;95197.38;5033259;28;1910;-56
2023/03/04 01:15:43;;;;;;;;;;;;;;;7.77;88.12;95191.78;5033234;28;1086;-56
2023/03/04 01:18:09;;;;;;;;;;;;;;;7.73;88.97;95190.41;5033183;28;1106;-55
2023/03/04 01:20:35;;;;;;;;;;;;;;;7.82;87.28;95192.22;5033199;28;1042;-55
2023/03/04 01:23:01;;;;;;;;;;;;;;;7.81;86.35;95190.50;5033474;28;1045;-56
2023/03/04 01:25:27;;;;;;;;;;;;;;;7.79;86.68;95193.31;5033328;28;1038;-55
2023/03/04 01:27:53;;;;;;;;;;;;;;;7.82;86.05;95189.53;5033264;28;1006;-56
2023/03/04 01:30:19;;;;;;;;;;;;;;;7.84;85.98;95189.41;5033034;28;1217;-56
2023/03/04 01:32:45;;;;;;;;;;;;;;;7.82;85.52;95189.53;5033020;28;1991;-56
2023/03/04 01:35:11;;;;;;;;;;;;;;;7.75;85.43;95186.59;5033354;28;982;-55
2023/03/04 01:37:37;;;;;;;;;;;;;;;7.69;85.76;95191.66;5033247;28;986;-55
2023/03/04 01:40:04;;;;;;;;;;;;;;;7.70;85.84;95183.56;5033184;28;1037;-56
2023/03/04 01:42:32;;;;;;;;;;;;;;;7.74;85.09;95184.06;5033113;28;983;-56
2023/03/04 01:44:58;;;;;;;;;;;;;;;7.75;85.37;95178.63;5032936;28;1030;-56
2023/03/04 01:47:26;;;;;;;;;;;;;;;7.72;85.79;95181.59;5032978;28;978;-56
2023/03/04 01:49:54;;;;;;;;;;;;;;;7.76;85.00;95182.13;5033182;28;1037;-56
2023/03/04 01:52:20;;;;;;;;;;;;;;;7.69;85.32;95178.38;5033026;28;1985;-56
2023/03/04 01:54:47;;;;;;;;;;;;;;;7.61;85.98;95177.25;5033085;28;974;-56
2023/03/04 01:57:21;;;;;;;;;;;;;;;7.61;86.53;95171.94;5032987;28;966;-56
2023/03/04 02:00:07;;;;;;;;;;;;;;;7.58;85.39;95169.53;5032844;28;1879;-56
2023/03/04 02:02:32;;;;;;;;;;;;;;;7.44;87.51;95162.00;5032742;28;1166;-55
2023/03/04 02:04:58;;;;;;;;;;;;;;;7.33;88.09;95160.31;5032983;28;1058;-56
2023/03/04 02:07:24;;;;;;;;;;;;;;;7.40;87.71;95160.63;5032953;28;967;-56
2023/03/04 02:09:50;;;;;;;;;;;;;;;7.43;86.92;95158.50;5032736;28;1122;-55
2023/03/04 02:12:17;;;;;;;;;;;;;;;7.43;86.13;95153.16;5034625;28;1919;-56
2023/03/04 02:14:43;;;;;;;;;;;;;;;7.51;86.68;95151.63;5036326;28;975;-56
2023/03/04 02:17:11;;;;;;;;;;;;;;;7.55;87.22;95151.22;5036523;28;1046;-56
2023/03/04 02:19:37;;;;;;;;;;;;;;;7.54;87.22;95146.03;5036341;28;1167;-55
2023/03/04 02:22:03;;;;;;;;;;;;;;;7.51;86.20;95148.97;5036311;28;993;-55
2023/03/04 02:24:29;;;;;;;;;;;;;;;7.46;87.11;95149.41;5036274;28;1013;-55
2023/03/04 02:26:55;;;;;;;;;;;;;;;7.27;90.15;95138.78;5036041;28;1089;-55
2023/03/04 02:29:21;;;;;;;;;;;;;;;7.25;90.59;95136.28;5036056;28;1884;-55
2023/03/04 02:31:49;;;;;;;;;;;;;;;7.31;90.70;95140.19;5035836;28;1999;-55
2023/03/04 02:34:17;;;;;;;;;;;;;;;7.26;89.07;95137.94;5035990;28;1061;-55
2023/03/04 02:36:44;;;;;;;;;;;;;;;7.23;87.91;95133.75;5035956;28;1866;-55
2023/03/04 02:39:19;;;;;;;;;;;;;;;7.20;88.35;95139.34;5036027;28;1017;-55
2023/03/04 02:41:49;;;;;;;;;;;;;;;7.19;87.18;95134.16;5035773;28;1013;-56
2023/03/04 02:44:17;;;;;;;;;;;;;;;7.21;87.55;95130.38;5036205;28;1040;-56
2023/03/04 02:46:43;;;;;;;;;;;;;;;7.32;87.32;95129.41;5035774;28;1101;-56
2023/03/04 02:49:09;;;;;;;;;;;;;;;7.42;87.01;95129.41;5035647;28;1042;-56
2023/03/04 02:51:35;;;;;;;;;;;;;;;7.48;85.00;95136.81;5035650;28;1914;-55
2023/03/04 02:54:01;;;;;;;;;;;;;;;7.49;85.21;95135.81;5018104;28;974;-56
2023/03/04 02:56:27;;;;;;;;;;;;;;;7.50;85.49;95134.84;5035569;28;1096;-55
2023/03/04 02:58:53;;;;;;;;;;;;;;;7.52;85.55;95132.03;5035757;28;1044;-56
2023/03/04 03:01:19;;;;;;;;;;;;;;;7.45;85.26;95134.41;5035702;28;1061;-56
2023/03/04 03:03:45;;;;;;;;;;;;;;;7.44;85.51;95132.75;5035542;28;1089;-55
2023/03/04 03:06:11;;;;;;;;;;;;;;;7.45;85.79;95130.91;5035351;28;1121;-56
2023/03/04 03:08:37;;;;;;;;;;;;;;;7.47;85.50;95124.47;5035328;28;986;-55
2023/03/04 03:11:03;;;;;;;;;;;;;;;7.46;85.68;95121.97;5035222;28;1973;-55
2023/03/04 03:13:30;;;;;;;;;;;;;;;7.45;85.92;95130.91;5035259;28;1101;-56
2023/03/04 03:15:56;;;;;;;;;;;;;;;7.50;85.79;95128.69;5035340;28;1014;-56
2023/03/04 03:18:22;;;;;;;;;;;;;;;7.45;86.09;95121.09;5035206;28;1129;-55
2023/03/04 03:20:48;;;;;;;;;;;;;;;7.46;86.07;95121.97;5035043;28;1074;-56
2023/03/04 03:23:14;;;;;;;;;;;;;;;7.43;86.32;95121.25;5035057;28;1042;-56
2023/03/04 03:25:40;;;;;;;;;;;;;;;7.41;86.31;95117.88;5034966;28;1039;-56
2023/03/04 03:28:06;;;;;;;;;;;;;;;7.35;87.16;95114.97;5035207;28;1033;-56
2023/03/04 03:30:32;;;;;;;;;;;;;;;7.26;88.29;95126.47;5034969;28;1106;-56
2023/03/04 03:32:59;;;;;;;;;;;;;;;7.27;88.73;95121.00;5034899;28;1914;-56
2023/03/04 03:35:25;;;;;;;;;;;;;;;7.11;89.32;95128.69;5034951;28;982;-56
2023/03/04 03:37:51;;;;;;;;;;;;;;;7.05;90.06;95124.78;5034853;28;1019;-56
2023/03/04 03:40:17;;;;;;;;;;;;;;;7.12;90.33;95125.91;5034695;28;974;-56
2023/03/04 03:42:43;;;;;;;;;;;;;;;7.15;88.81;95119.47;5034917;28;1037;-56
2023/03/04 03:45:09;;;;;;;;;;;;;;;7.17;88.73;95110.38;5034601;28;1050;-56
2023/03/04 03:47:35;;;;;;;;;;;;;;;7.20;89.22;95120.72;5034739;28;1053;-56
2023/03/04 03:50:02;;;;;;;;;;;;;;;7.21;88.32;95125.06;5034480;28;1871;-55
2023/03/04 03:52:28;;;;;;;;;;;;;;;7.22;88.75;95129.41;5034504;28;1910;-56
2023/03/04 03:54:54;;;;;;;;;;;;;;;7.22;88.99;95116.09;5034369;28;1042;-56
2023/03/04 03:57:20;;;;;;;;;;;;;;;7.22;88.18;95115.25;5034565;28;1057;-56
2023/03/04 03:59:46;;;;;;;;;;;;;;;7.09;89.40;95112.88;5034323;28;1134;-55
2023/03/04 04:02:12;;;;;;;;;;;;;;;7.10;90.57;95105.78;5034444;28;978;-55
2023/03/04 04:04:38;;;;;;;;;;;;;;;7.13;89.64;95110.78;5034384;28;997;-56
2023/03/04 04:07:04;;;;;;;;;;;;;;;7.07;90.17;95117.50;5034214;28;1050;-56
2023/03/04 04:09:30;;;;;;;;;;;;;;;7.11;89.53;95110.94;5034185;28;982;-56
2023/03/04 04:11:56;;;;;;;;;;;;;;;7.18;89.83;95121.84;5034009;28;1910;-56
2023/03/04 04:14:22;;;;;;;;;;;;;;;7.20;89.48;95111.91;5034254;28;1030;-56
2023/03/04 04:16:48;;;;;;;;;;;;;;;7.15;89.24;95124.78;5033997;28;1070;-56
2023/03/04 04:19:17;;;;;;;;;;;;;;;7.06;89.55;95115.84;5034145;28;990;-55
2023/03/04 04:21:44;;;;;;;;;;;;;;;7.02;89.32;95120.59;5034004;28;986;-56
2023/03/04 04:24:10;;;;;;;;;;;;;;;6.96;89.71;95115.00;5033933;28;1002;-56
2023/03/04 04:26:36;;;;;;;;;;;;;;;6.84;91.31;95115.13;5033869;28;997;-55
2023/03/04 04:29:02;;;;;;;;;;;;;;;6.90;91.28;95116.38;5034091;28;1316;-55
2023/03/04 04:31:28;;;;;;;;;;;;;;;7.04;90.69;95125.78;5033579;28;1914;-56
2023/03/04 04:33:54;;;;;;;;;;;;;;;7.11;90.74;95124.22;5033558;28;977;-56
2023/03/04 04:36:20;;;;;;;;;;;;;;;7.11;90.36;95124.22;5033742;28;1033;-55
2023/03/04 04:38:48;;;;;;;;;;;;;;;7.10;90.35;95117.25;5033729;28;1029;-56
2023/03/04 04:41:19;;;;;;;;;;;;;;;7.16;90.43;95122.00;5033919;28;1064;-56
2023/03/04 04:43:45;;;;;;;;;;;;;;;7.12;90.92;95128.56;5033810;28;947;-56
2023/03/04 04:46:11;;;;;;;;;;;;;;;7.18;90.46;95124.50;5033597;28;1132;-56
2023/03/04 04:48:37;;;;;;;;;;;;;;;7.17;90.59;95126.34;5033536;28;1038;-56
2023/03/04 04:51:03;;;;;;;;;;;;;;;7.19;90.56;95126.16;5033538;28;1910;-56
2023/03/04 04:53:29;;;;;;;;;;;;;;;7.14;90.64;95126.59;5033489;28;1026;-55
2023/03/04 04:55:55;;;;;;;;;;;;;;;7.04;90.99;95123.97;5033642;28;1041;-52
2023/03/04 04:58:21;;;;;;;;;;;;;;;6.96;90.93;95128.28;5033630;28;1044;-53
2023/03/04 05:00:47;;;;;;;;;;;;;;;6.88;90.92;95121.00;5033588;28;997;-54
2023/03/04 05:03:13;;;;;;;;;;;;;;;6.88;91.36;95123.66;5033489;28;1013;-54
2023/03/04 05:05:39;;;;;;;;;;;;;;;6.97;91.14;95129.97;5033341;28;1038;-54
2023/03/04 05:08:05;;;;;;;;;;;;;;;7.00;90.99;95135.84;5033274;28;1017;-54
2023/03/04 05:10:31;;;;;;;;;;;;;;;6.93;91.42;95131.25;5033515;28;1069;-54
2023/03/04 05:12:57;;;;;;;;;;;;;;;6.90;91.27;95123.53;5033169;28;1906;-54
2023/03/04 05:15:23;;;;;;;;;;;;;;;6.70;92.18;95120.88;5033153;28;1192;-54
2023/03/04 05:17:49;;;;;;;;;;;;;;;6.74;92.38;95122.25;5033305;28;986;-54
2023/03/04 05:20:16;;;;;;;;;;;;;;;6.88;91.71;95128.97;5033260;28;1053;-54
2023/03/04 05:22:42;;;;;;;;;;;;;;;7.00;91.25;95135.00;5032985;28;982;-54
2023/03/04 05:25:08;;;;;;;;;;;;;;;7.04;90.64;95133.75;5033119;28;1046;-54
2023/03/04 05:27:34;;;;;;;;;;;;;;;7.05;90.58;95130.09;5033294;28;974;-55
2023/03/04 05:30:00;;;;;;;;;;;;;;;6.94;92.07;95141.69;5033073;28;1189;-55
2023/03/04 05:32:26;;;;;;;;;;;;;;;6.92;91.64;95141.00;5032985;28;1979;-54
2023/03/04 05:34:52;;;;;;;;;;;;;;;6.76;92.01;95144.22;5033066;28;1057;-53
2023/03/04 05:37:18;;;;;;;;;;;;;;;6.68;92.87;95144.06;5032877;28;1619;-55
2023/03/04 05:39:44;;;;;;;;;;;;;;;6.68;92.56;95146.72;5033258;28;977;-56
2023/03/04 05:42:10;;;;;;;;;;;;;;;6.77;92.53;95139.72;5033205;28;1061;-55
2023/03/04 05:44:36;;;;;;;;;;;;;;;6.93;92.57;95145.34;5032900;28;1038;-53
2023/03/04 05:47:02;;;;;;;;;;;;;;;7.01;91.87;95136.69;5034681;28;1267;-53
2023/03/04 05:49:28;;;;;;;;;;;;;;;7.07;91.50;95145.91;5036825;28;1033;-54
2023/03/04 05:51:54;;;;;;;;;;;;;;;6.99;91.82;95144.78;5036633;28;1997;-54
2023/03/04 05:54:20;;;;;;;;;;;;;;;7.07;91.95;95145.91;5036616;28;998;-54
2023/03/04 05:56:46;;;;;;;;;;;;;;;7.17;91.72;95144.94;5036788;28;1021;-54
2023/03/04 05:59:12;;;;;;;;;;;;;;;7.22;91.13;95150.66;5036622;28;1017;-54
2023/03/04 06:01:38;;;;;;;;;;;;;;;7.26;91.28;95159.22;5036472;28;1097;-54
2023/03/04 06:04:04;;;;;;;;;;;;;;;7.23;91.07;95160.34;5036563;28;1315;-54
2023/03/04 06:06:30;;;;;;;;;;;;;;;7.31;90.73;95158.81;5036495;28;982;-54
2023/03/04 06:08:57;;;;;;;;;;;;;;;7.32;90.84;95160.47;5036310;28;986;-55
2023/03/04 06:11:23;;;;;;;;;;;;;;;7.18;91.03;95162.56;5036437;28;1995;-55
2023/03/04 06:13:49;;;;;;;;;;;;;;;7.11;91.75;95158.78;5036097;28;1008;-55
2023/03/04 06:16:15;;;;;;;;;;;;;;;7.15;91.61;95165.53;5036214;28;1340;-55
2023/03/04 06:18:41;;;;;;;;;;;;;;;7.17;91.41;95166.22;5036140;28;978;-55
2023/03/04 06:21:07;;;;;;;;;;;;;;;7.26;91.65;95169.00;5036067;28;1033;-55
2023/03/04 06:23:33;;;;;;;;;;;;;;;7.22;92.11;95157.81;5036227;28;1044;-55
2023/03/04 06:26:00;;;;;;;;;;;;;;;7.21;92.06;95164.97;5035979;28;974;-55
2023/03/04 06:28:26;;;;;;;;;;;;;;;7.28;91.04;95172.38;5036015;28;805;-55
2023/03/04 06:30:53;;;;;;;;;;;;;;;7.36;89.85;95178.69;5036061;28;1228;-56
2023/03/04 06:33:19;;;;;;;;;;;;;;;7.36;87.12;95175.16;5036145;28;1989;-55
2023/03/04 06:35:45;;;;;;;;;;;;;;;7.40;87.31;95177.41;5036003;28;1021;-55
2023/03/04 06:38:11;;;;;;;;;;;;;;;7.39;86.69;95170.41;5035913;28;1238;-55
2023/03/04 06:40:38;;;;;;;;;;;;;;;7.49;86.56;95182.84;5036179;28;935;-55
2023/03/04 06:43:04;;;;;;;;;;;;;;;7.57;86.36;95182.97;5036063;28;978;-55
2023/03/04 06:45:30;;;;;;;;;;;;;;;7.60;86.09;95191.53;5035852;28;1058;-56
2023/03/04 06:47:56;;;;;;;;;;;;;;;7.58;85.44;95169.53;5035849;28;1113;-55
2023/03/04 06:50:23;;;;;;;;;;;;;;;7.76;84.21;95192.78;5034630;28;1969;-55
2023/03/04 06:52:49;;;;;;;;;;;;;;;7.67;84.29;95185.66;5035590;28;1913;-55
2023/03/04 06:55:15;;;;;;;;;;;;;;;7.55;85.95;95190.25;5035843;28;978;-55
2023/03/04 06:57:41;;;;;;;;;;;;;;;7.68;85.67;95189.97;5035391;28;1037;-55
2023/03/04 07:00:07;;;;;;;;;;;;;;;7.76;84.66;95192.78;5035657;28;975;-55
2023/03/04 07:02:33;;;;;;;;;;;;;;;7.75;84.09;95189.25;5035486;28;1078;-55
2023/03/04 07:04:59;;;;;;;;;;;;;;;7.83;84.79;95193.88;5035535;28;1053;-55
2023/03/04 07:07:26;;;;;;;;;;;;;;;7.80;84.47;95189.69;5035826;28;1037;-55
2023/03/04 07:09:52;;;;;;;;;;;;;;;7.76;86.01;95192.78;5017968;28;975;-55
2023/03/04 07:12:18;;;;;;;;;;;;;;;7.81;85.08;95186.03;5035424;28;1906;-55
2023/03/04 07:14:44;;;;;;;;;;;;;;;7.73;83.86;95190.41;5035194;28;1058;-55
2023/03/04 07:17:10;;;;;;;;;;;;;;;7.82;84.68;95186.88;5035248;28;1085;-55
2023/03/04 07:19:36;;;;;;;;;;;;;;;7.91;82.70;95190.50;5035057;28;1097;-55
2023/03/04 07:22:02;;;;;;;;;;;;;;;7.96;83.32;95193.56;5035024;28;1056;-55
2023/03/04 07:24:28;;;;;;;;;;;;;;;7.99;84.44;95186.13;5035074;28;1866;-54
2023/03/04 07:26:55;;;;;;;;;;;;;;;8.02;84.02;95187.66;5035098;28;1053;-54
2023/03/04 07:29:21;;;;;;;;;;;;;;;8.05;83.22;95189.22;5035167;28;986;-55
2023/03/04 07:31:47;;;;;;;;;;;;;;;8.29;83.93;95186.03;5034875;28;1914;-54
2023/03/04 07:34:13;;;;;;;;;;;;;;;8.40;83.11;95191.16;5034993;28;1049;-54
2023/03/04 07:36:40;;;;;;;;;;;;;;;8.45;81.93;95188.13;5034863;28;1065;-54
2023/03/04 07:39:06;;;;;;;;;;;;;;;8.53;82.17;95182.88;5034828;28;1046;-54
2023/03/04 07:41:35;;;;;;;;;;;;;;;8.71;81.08;95182.94;5034827;28;1051;-55
2023/03/04 07:44:01;;;;;;;;;;;;;;;8.68;80.82;95181.41;5034908;28;1036;-55
2023/03/04 07:46:27;;;;;;;;;;;;;;;8.57;80.61;95189.59;5034735;28;1090;-55
2023/03/04 07:48:54;;;;;;;;;;;;;;;8.62;81.21;95175.84;5034685;28;1058;-55
2023/03/04 07:51:22;;;;;;;;;;;;;;;8.84;81.90;95177.22;5034536;28;1997;-55
2023/03/04 07:53:51;;;;;;;;;;;;;;;8.86;81.54;95183.25;5034827;28;1082;-55
2023/03/04 07:56:20;;;;;;;;;;;;;;;9.02;81.30;95183.44;5034548;28;1117;-55
2023/03/04 07:58:46;;;;;;;;;;;;;;;8.91;79.31;95186.31;5034626;28;1041;-55
2023/03/04 08:01:13;;;;;;;;;;;;;;;8.95;79.26;95182.34;5034432;28;1101;-55
2023/03/04 08:03:39;;;;;;;;;;;;;;;8.99;78.81;95181.91;5034464;28;1037;-55
2023/03/04 08:06:06;;;;;;;;;;;;;;;8.98;78.64;95182.06;5034594;28;1045;-55
2023/03/04 08:08:32;;;;;;;;;;;;;;;9.04;78.85;95181.47;5034061;28;1090;-55
2023/03/04 08:10:58;;;;;;;;;;;;;;;9.07;78.17;95173.16;5033643;28;1192;-55
2023/03/04 08:13:24;;;;;;;;;;;;;;;9.02;76.25;95169.28;5034271;28;1979;-55
2023/03/04 08:15:50;;;;;;;;;;;;;;;9.04;75.88;95173.47;5034316;28;966;-55
2023/03/04 08:18:16;;;;;;;;;;;;;;;9.08;76.28;95169.50;5034156;28;1032;-55
2023/03/04 08:20:43;;;;;;;;;;;;;;;9.11;76.86;95179.88;5034063;28;994;-55
2023/03/04 08:23:09;;;;;;;;;;;;;;;9.26;76.37;95171.31;5034241;28;967;-55
2023/03/04 08:25:39;;;;;;;;;;;;;;;9.41;75.29;95175.16;5016675;28;1062;-55
2023/03/04 08:28:05;;;;;;;;;;;;;;;9.51;76.13;95175.91;5033975;28;1066;-55
2023/03/04 08:30:31;;;;;;;;;;;;;;;9.62;74.46;95174.84;5033869;28;1126;-56
2023/03/04 08:32:57;;;;;;;;;;;;;;;9.60;75.13;95184.81;5033777;28;1906;-55
2023/03/04 08:35:24;;;;;;;;;;;;;;;9.40;75.13;95173.47;5034063;28;1047;-55
2023/03/04 08:37:49;;;;;;;;;;;;;;;9.34;75.76;95180.25;5034043;28;1064;-55
2023/03/04 08:40:15;;;;;;;;;;;;;;;9.39;77.06;95174.47;5016443;28;1041;-55
2023/03/04 08:42:41;;;;;;;;;;;;;;;9.35;74.94;95181.09;5033761;28;1109;-54
2023/03/04 08:45:08;;;;;;;;;;;;;;;9.54;75.55;95177.41;5033784;28;1076;-55
2023/03/04 08:47:35;;;;;;;;;;;;;;;9.54;72.83;95186.28;5033648;28;1271;-55
2023/03/04 08:50:01;;;;;;;;;;;;;;;9.33;70.20;95172.41;5033891;28;1037;-55
2023/03/04 08:52:28;;;;;;;;;;;;;;;9.39;71.20;95185.16;5033779;28;1911;-54
2023/03/04 08:54:54;;;;;;;;;;;;;;;9.38;73.82;95181.63;5033767;28;947;-54
2023/03/04 08:57:20;;;;;;;;;;;;;;;9.37;74.32;95176.44;5033690;28;1039;-54
2023/03/04 08:59:46;;;;;;;;;;;;;;;9.37;71.97;95168.44;5033584;28;1013;-55
2023/03/04 09:02:13;;;;;;;;;;;;;;;9.38;73.09;95175.44;5033347;28;1058;-55
2023/03/04 09:04:40;;;;;;;;;;;;;;;9.12;76.64;95173.53;5033720;28;977;-55
2023/03/04 09:07:07;;;;;;;;;;;;;;;9.21;76.37;95170.97;5033649;28;962;-55
2023/03/04 09:09:33;;;;;;;;;;;;;;;9.17;74.57;95167.75;5033424;28;1063;-55
2023/03/04 09:12:00;;;;;;;;;;;;;;;9.26;76.47;95177.53;5033406;28;1907;-55
2023/03/04 09:14:26;;;;;;;;;;;;;;;9.27;76.70;95168.50;5033351;28;1051;-55
2023/03/04 09:16:52;;;;;;;;;;;;;;;9.37;74.72;95161.28;5033308;28;1068;-55
2023/03/04 09:19:18;;;;;;;;;;;;;;;9.25;73.34;95167.81;5016042;28;967;-55
2023/03/04 09:21:44;;;;;;;;;;;;;;;9.17;78.11;95168.59;5036288;28;1112;-55
2023/03/04 09:27:33;;;;;;;;;;;;;;;9.45;77.88;95171.19;5037386;28;738;-55
2023/03/04 09:29:59;;;;;;;;;;;;;;;9.43;77.01;95166.97;5037409;28;1261;-56
2023/03/04 09:32:25;;;;;;;;;;;;;;;9.44;75.62;95171.34;5037313;28;1906;-56
2023/03/04 09:34:51;;;;;;;;;;;;;;;9.24;76.01;95170.63;5037344;28;1029;-55
2023/03/04 09:37:17;;;;;;;;;;;;;;;9.24;74.71;95159.97;5037147;28;1038;-55
2023/03/04 09:39:43;;;;;;;;;;;;;;;9.11;74.67;95161.19;5037131;28;1101;-55
2023/03/04 09:42:16;;;;;;;;;;;;;;;9.19;74.37;95161.28;5037060;28;1066;-56
2023/03/04 09:44:45;;;;;;;;;;;;;;;9.19;73.45;95163.94;5037048;28;1055;-55
2023/03/04 09:47:14;;;;;;;;;;;;;;;9.17;74.75;95157.09;5037109;28;1033;-55
2023/03/04 09:49:43;;;;;;;;;;;;;;;9.18;75.61;95161.41;5036979;28;1065;-55
2023/03/04 09:52:17;;;;;;;;;;;;;;;9.23;74.54;95158.31;5036732;28;1910;-55
2023/03/04 09:54:47;;;;;;;;;;;;;;;9.31;77.88;95153.88;5037178;28;1251;-55
2023/03/04 09:57:13;;;;;;;;;;;;;;;9.45;78.07;95155.16;5036956;28;1034;-55
2023/03/04 09:59:43;;;;;;;;;;;;;;;9.42;76.31;95157.31;5036909;28;1047;-55
2023/03/04 10:02:19;;;;;;;;;;;;;;;9.48;78.67;95149.50;5036842;28;989;-55
2023/03/04 10:04:48;;;;;;;;;;;;;;;9.48;77.22;95154.84;5036707;28;1049;-55
2023/03/04 10:07:16;;;;;;;;;;;;;;;9.44;77.24;95144.66;5036596;28;978;-55
2023/03/04 10:09:46;;;;;;;;;;;;;;;9.39;76.93;95145.13;5036570;28;1050;-55
2023/03/04 10:12:14;;;;;;;;;;;;;;;9.42;78.94;95142.13;5036613;28;1906;-55
2023/03/04 10:14:49;;;;;;;;;;;;;;;9.41;75.48;95145.81;5036607;28;1037;-55
2023/03/04 10:17:31;;;;;;;;;;;;;;;9.40;76.47;95141.44;5036513;28;1033;-55
2023/03/04 10:20:01;;;;;;;;;;;;;;;9.43;78.51;95134.94;5036286;28;1114;-55
2023/03/04 10:22:41;;;;;;;;;;;;;;;9.32;76.78;95130.72;5036814;28;1021;-55
2023/03/04 10:25:27;;;;;;;;;;;;;;;9.35;78.75;95127.72;5036257;28;1026;-55
2023/03/04 10:27:56;;;;;;;;;;;;;;;9.40;78.15;95128.09;5036134;28;1092;-54
2023/03/04 10:30:29;;;;;;;;;;;;;;;9.32;74.91;95128.88;5036215;28;1179;-54
2023/03/04 10:32:55;;;;;;;;;;;;;;;9.26;75.89;95117.97;5035426;28;2035;-54
2023/03/04 10:35:25;;;;;;;;;;;;;;;9.32;76.70;95120.03;5036246;28;970;-54
2023/03/04 10:37:51;;;;;;;;;;;;;;;9.18;77.65;95111.59;5036042;28;1085;-54
2023/03/04 10:40:18;;;;;;;;;;;;;;;9.28;76.72;95105.34;5035998;28;951;-54
2023/03/04 10:42:47;;;;;;;;;;;;;;;9.27;74.32;95109.81;5035796;28;1133;-55
2023/03/04 10:45:23;;;;;;;;;;;;;;;9.14;73.83;95096.88;5035519;28;1062;-55
2023/03/04 10:47:53;;;;;;;;;;;;;;;9.06;74.64;95098.63;5036054;28;1265;-55
2023/03/04 10:50:24;;;;;;;;;;;;;;;9.05;74.12;95097.81;5035915;28;955;-54
2023/03/04 10:52:52;;;;;;;;;;;;;;;8.97;73.42;95090.56;5035750;28;1902;-55
2023/03/04 10:55:18;;;;;;;;;;;;;;;9.03;73.94;95085.59;5035587;28;966;-55
2023/03/04 10:57:47;;;;;;;;;;;;;;;9.07;74.07;95082.47;5035648;28;1042;-55
2023/03/04 11:00:15;;;;;;;;;;;;;;;9.10;72.39;95082.16;5035801;28;967;-55
2023/03/04 11:02:42;;;;;;;;;;;;;;;8.95;72.75;95078.34;5035685;28;1045;-54
2023/03/04 11:05:08;;;;;;;;;;;;;;;8.99;72.94;95072.59;5035572;28;1053;-55
2023/03/04 11:07:41;;;;;;;;;;;;;;;9.10;72.10;95070.66;5035505;28;1005;-55
2023/03/04 11:10:10;;;;;;;;;;;;;;;9.31;73.44;95065.81;5035634;28;947;-55
2023/03/04 11:12:36;;;;;;;;;;;;;;;9.25;72.16;95066.44;5035275;28;1970;-55
2023/03/04 11:15:03;;;;;;;;;;;;;;;9.19;72.58;95048.41;5035486;28;970;-54
2023/03/04 11:17:44;;;;;;;;;;;;;;;9.18;72.69;95052.91;5035362;28;994;-54
2023/03/04 11:20:24;;;;;;;;;;;;;;;9.15;72.57;95047.03;5035235;28;1041;-56
2023/03/04 11:22:51;;;;;;;;;;;;;;;9.25;72.55;95049.59;5035394;28;1023;-54
2023/03/04 11:25:29;;;;;;;;;;;;;;;9.35;70.74;95034.31;5035345;28;1292;-53
2023/03/04 11:28:01;;;;;;;;;;;;;;;9.28;71.72;95035.97;5035010;28;1062;-54
2023/03/04 11:30:33;;;;;;;;;;;;;;;9.35;73.03;95035.19;5034847;28;1078;-54
2023/03/04 11:33:09;;;;;;;;;;;;;;;9.34;72.72;95035.34;5034846;28;1989;-54
2023/03/04 11:35:43;;;;;;;;;;;;;;;9.44;72.51;95029.91;5035202;28;1041;-55
2023/03/04 11:38:19;;;;;;;;;;;;;;;9.48;71.72;95036.59;5034959;28;1121;-55
2023/03/04 11:40:45;;;;;;;;;;;;;;;9.37;72.69;95024.34;5034853;28;1041;-55
2023/03/04 11:43:14;;;;;;;;;;;;;;;9.37;73.80;95027.00;5034173;28;1051;-55
2023/03/04 11:45:43;;;;;;;;;;;;;;;9.31;71.97;95022.28;5033751;28;1105;-55
2023/03/04 11:48:35;;;;;;;;;;;;;;;9.22;73.33;95028.56;5034687;28;1034;-55
2023/03/04 11:51:01;;;;;;;;;;;;;;;9.26;74.11;95022.78;5032706;28;1889;-55
2023/03/04 11:53:40;;;;;;;;;;;;;;;9.40;73.18;95024.03;5034517;28;1989;-55
2023/03/04 11:56:17;;;;;;;;;;;;;;;9.44;73.72;95017.38;5034548;28;1049;-55
2023/03/04 11:58:54;;;;;;;;;;;;;;;9.42;72.91;95021.22;5034615;28;971;-55
2023/03/04 12:01:38;;;;;;;;;;;;;;;9.23;74.99;95016.91;5034446;28;1037;-55
2023/03/04 12:04:20;;;;;;;;;;;;;;;9.44;73.76;95017.38;5034351;28;1048;-55
2023/03/04 12:06:49;;;;;;;;;;;;;;;9.45;75.45;95008.38;5034477;28;994;-55
2023/03/04 12:09:31;;;;;;;;;;;;;;;9.56;75.21;95008.13;5034232;28;1039;-55
2023/03/04 12:12:22;;;;;;;;;;;;;;;9.43;73.32;95010.38;5016690;28;2079;-55
2023/03/04 12:14:48;;;;;;;;;;;;;;;9.26;73.18;95001.44;5034166;28;958;-55
2023/03/04 12:17:24;;;;;;;;;;;;;;;9.38;74.58;95004.69;5034138;28;1094;-55
2023/03/04 12:19:59;;;;;;;;;;;;;;;9.14;74.23;95000.00;5034231;28;998;-55
2023/03/04 12:22:36;;;;;;;;;;;;;;;9.18;75.63;95001.34;5034043;28;1034;-55
2023/03/04 12:25:05;;;;;;;;;;;;;;;9.30;75.53;94999.28;5033956;28;978;-55
2023/03/04 12:27:44;;;;;;;;;;;;;;;9.47;76.18;95000.25;5033912;28;1026;-55
2023/03/04 12:30:15;;;;;;;;;;;;;;;9.49;74.28;94992.91;5033876;28;1193;-55
2023/03/04 12:32:41;;;;;;;;;;;;;;;9.31;75.07;94996.44;5033940;28;2055;-54
2023/03/04 12:35:19;;;;;;;;;;;;;;;9.24;75.36;94989.22;5033892;28;986;-55
2023/03/04 12:37:58;;;;;;;;;;;;;;;9.24;75.73;94981.22;5033697;28;1034;-55
2023/03/04 12:40:27;;;;;;;;;;;;;;;9.45;75.45;94973.69;5033994;28;1038;-55
2023/03/04 12:42:59;;;;;;;;;;;;;;;9.46;75.00;94979.88;5033881;28;1041;-55
2023/03/04 12:45:28;;;;;;;;;;;;;;;9.45;74.70;94973.69;5033694;28;1959;-55
2023/03/04 12:48:03;;;;;;;;;;;;;;;9.51;75.02;94978.41;5033681;28;1009;-55
2023/03/04 12:50:35;;;;;;;;;;;;;;;9.61;76.13;94977.44;5033591;28;1030;-55
2023/03/04 12:53:01;;;;;;;;;;;;;;;9.78;76.47;94968.50;5033725;28;1906;-55
2023/03/04 12:55:37;;;;;;;;;;;;;;;9.76;73.90;94973.19;5033151;28;1089;-55
2023/03/04 12:58:03;;;;;;;;;;;;;;;9.55;76.32;94963.72;5033589;28;970;-55
2023/03/04 13:00:49;;;;;;;;;;;;;;;9.53;75.72;94965.72;5033498;28;990;-55
2023/03/04 13:03:23;;;;;;;;;;;;;;;9.44;76.02;94955.19;5033942;28;982;-55
2023/03/04 13:06:15;;;;;;;;;;;;;;;9.62;76.97;94963.94;5033444;28;1125;-55
2023/03/04 13:08:44;;;;;;;;;;;;;;;9.64;77.91;94961.13;5017742;28;1208;-55
2023/03/04 13:11:26;;;;;;;;;;;;;;;9.61;75.06;94956.91;5033292;28;1052;-55
2023/03/04 13:14:01;;;;;;;;;;;;;;;9.73;75.34;94944.97;5033521;28;994;-55
2023/03/04 13:16:31;;;;;;;;;;;;;;;9.69;76.98;94956.13;5033420;28;962;-55